Route Details

Aircraft Information
Group: North America Fleet
Types: B738, B752, B762, B763
Route Data
Distance: 1729nm
Duration: 0h 00m
Origin METAR: KSEA 141853Z 18005KT 10SM CLR 24/13 A3004 RMK AO2 SLP176 T02440128
Dest. METAR: KILN 141854Z AUTO 26014G20KT 9SM FEW044 32/21 A3007 RMK AO2 SLP167 T03220211
Freight Data
(for Jul 14, 2024)
Load Factor:
20%
Manifested Cargo: 18,803lbs
Financial History
Total Freight: 0lbs
Average Load: 0lbs/flt
Fuel Used: 0lbs
Avg. Fuel Used: 0lbs/flt
Fuel Expense: $0
Avg. Fuel Expense: $0
Avg. Fuel Cost: $0/lbs
Total Gross Income: $0
Pilot Pay: $0
Total Expenses: $0
Total Revenue: $0
Average Revenue: $0

Capitol Logistics 433




KSEA
Seattle-Tacoma International Airport
Seattle, Washington
KILN
Wilmington Air Park
Wilmington, Ohio

Activity Log

Date Flight Route Aircraft Duration
No Flights Yet